Hartford, Connecticut
Current Conditions -  °F | °C
As of 7:53 AM on Sunday 23 Nov 2014 (Local Time) from KHFD Reporting Station
Overcast Overcast  
Wind Chill:   Ceiling: 8000
Heat Index:   Visibility: 10mi
Dew Point: -6°   Wind: 8mph
Humidity: 43%   Direction: 190°S
Pressure: 30.16"   Gusts: NA
Location:  41.76°N, 72.67°W
Report Text: KHFD 231253Z 19007KT 10SM BKN080 OVC100 06/M06 A3016 RMK AO2 SLP214 T00611056
Loading
Personal Weather Stations






























Interactive Weather Map New forecast layout! Learn more

10-Day Weather Forecast

Advertisements
Track Severe Weather on mobile